Piseco, New York
Current Conditions -  °F | °C
As of 1:55 PM on Friday 21 Nov 2014 (Local Time) from KNY0 Reporting Station
Clear Clear  
Wind Chill: 12°   Ceiling: Unl
Heat Index: 25°   Visibility: 10mi
Dew Point:   Wind: 16mph
Humidity: 45%   Direction: 300°WNW
Pressure: 30.26"   Gusts: 21mph
Location:  43.45°N, 74.52°W
Report Text: KNY0 211855Z AUTO 30014G18KT 10SM CLR M04/M14 A3026 RMK AO2 T10381141
Loading
Personal Weather Stations






























Interactive Weather Map New forecast layout! Learn more

10-Day Weather Forecast

Advertisements
Track Severe Weather on mobile